Terminal Aerodrome Forecast
Issued by NWS

Home | Current Version | Previous Version | Text Only | Print | Product List | Glossary On
Versions: 1 2 3 4 5 6 7 8 9 10 11 12 13 14 15 16 17 18 19 20
000
FTUS45 KREV 211404 AAB
TAFTRK
TAF AMD
KTRK 211404Z 2114/2212 00000KT 1/4SM FG OVC001
     FM211700 20006KT P6SM FEW050 SCT120 BKN200
     FM220200 VRB03KT P6SM FEW120 BKN200=

USA.gov is the U.S. government's official web portal to all federal, state and local government web resources and services.